MMNL/NLD METAR and TAF weather

Enter ICAO airport designator
Station Type Date Time Source
MMNL METAR 2021/07/30 00:40 UTC NOAA

MMNL 300040Z 13006KT 8SM SCT200 33/18 A2995 RMK 8/002


Station Type Date Time Source
MMNL Decoded METAR 2021/07/30 00:40 UTC NOAA

Nuevo Laredo International , Mexico (MMNL) 27-26N 099-34W
Jul 29, 2021 - 08:40 PM EDT / 2021.07.30 0040 UTC
Wind: from the SE (130 degrees) at 7 MPH (6 KT):0
Visibility: 8 mile(s):0
Sky conditions: partly cloudy
Temperature: 91 F (33 C)
Dew Point: 64 F (18 C)
Relative Humidity: 41%
Pressure (altimeter): 29.95 in. Hg (1014 hPa)
ob: MMNL 300040Z 13006KT 8SM SCT200 33/18 A2995 RMK 8/002
cycle: 0

Station Type Date Time Source
MMNL TAF 2021/07/30 06:30 UTC NOAA

TAF MMNL 300520Z 3006/3106 13005KT 6SM HZ SCT200
FM301800 13010KT 6SM HZ SCT030 SCT200
FM310300 13005KT P6SM SCT200

Example: see airport list